Thursday, July 24, 2014
17:51 UTC
  |  Log In   |  Register Free
Airport Search:

Pike County-Hatcher Field Airport
(KPBX)

Pike County-Hatcher Field Airport Diagram
No Airport Diagram Available

FAA data valid effective July 24, 2014 until September 18, 2014 (unless otherwise noted).

 
 
 
 
 
 
 
 
 
 
 
 
 
 

Current Aviation Weather for Pike County-Hatcher Field Airport (KPBX)

The most recent METAR observation for KLNP was updated at: 1635 UTC
METAR Summary (Translated METAR)
KLNP
241635Z AUTO 24009KT 10SM SCT021 SCT037 BKN080 25/17 A3004 RMK AO2 LTG DSNT W
KVJI
(29.9 nm SE from KLNP)
241635Z AUTO 26008KT 10SM BKN021 BKN065 26/20 A3001 RMK AO2 T02630201
TAF Summary (Translated TAF)
KTRI
(31.3 nm SE from KLNP)
241600Z 2416/2512 27004KT P6SM BKN035 FM242000 30006KT P6SM BKN050 FM250000 00000KT P6SM BKN250 FM250600 00000KT 4SM BR BKN250 TEMPO 2508/2512 1 1/2SM BR BKN025
  Airport Weather Conditions for KPBX

Current weather conditions are
not available for PBX


The nearest NOAA weather station
is at LNP, (34.5 nm SE from PBX)
  
 Current Weather at LNP
73° F
Thunderstorm in Vicinity
Northwest winds at 5.8 mph
LNP NOAA Radar

Pressure: 30.04 in
Humidity: 74%
Wind: Northwest at 5.8 MPH (5 KT)
Dew Point: 64.4°F
Visibility: 10.00 mi


Airport Weather Forecast for KPBX

Translated METAR and TAF for KLNP
Translated METAR for KLNP (1745 UTC 24 July 2014)
found at http://aviationweather.gov/adds/metars/
 
METAR text: KLNP 241735Z AUTO 26007KT 10SM -TSRA SCT013 BKN020 OVC045 21/20 A3003 RMK AO2 LTG DSNT ALQS P0010
Conditions at: KLNP (WISE/LONESOME PI, VA, US) observed 1735 UTC 24 July 2014
Temperature: 21.0°C (70°F)
Dewpoint: 20.0°C (68°F) [RH = 94%]
Pressure (altimeter): 30.03 inches Hg (1017.0 mb)
Winds: from the W (260 degrees) at 8 MPH (7 knots; 3.6 m/s)
Visibility: 10 or more miles (16+ km)
Ceiling: 2000 feet AGL
Clouds: scattered clouds at 1300 feet AGL
broken clouds at 2000 feet AGL
overcast cloud deck at 4500 feet AGL
Weather: -TSRA  (light rain associated with thunderstorm(s))
Translated TAF for KLNP

There is no translated TAF available for this airport

Find All Airport Services Find A Hotel Find A Rental Car Find A Golf Course Find A Restaurant $100 Hamburger



FBO's on the Field
FBO Company Facility Photos Services Transportation Aviation Fuel Prices: Prices include tax
Catering Weather Repair Courtesy Rental Type 100LL JetA JetA+ MOGAS 8087
 
Pikeville-Pike Airport

This FBO has not yet been rated
FS:Shell
Last Updated: Jun-27
Login to update fuel prices
SS:
Contact Pikeville-Pike AirportMore FBO Information
 
Add another FBO Facility Photos Catering Weather Repair Courtesy Rental Type 100LL JetA JetA+ MOGAS 8087
Services Transportation Aviation Fuel Prices: Prices include tax


GlobalAir.com Airport Resource Center model-print
model-print
model-print
model-print